Time;durP1;ratioP1;P1;durP2;ratioP2;P2;SDS_P1;SDS_P2;PMS_P1;PMS_P2;Temp;Humidity;BMP_temperature;BMP_pressure;BME280_temperature;BME280_humidity;BME280_pressure;Samples;Min_cycle;Max_cycle;Signal;HPM_P1;HPM_P2
2022/04/29 00:00:41;;;;;;;15.45;5.38;;;5.50;87.40;;;;;;5033282;28;20053;-26
2022/04/29 00:03:09;;;;;;;12.77;4.97;;;5.30;91.00;;;;;;5032808;28;20054;-26
2022/04/29 00:05:36;;;;;;;12.98;4.72;;;5.00;83.50;;;;;;5032562;28;20049;-25
2022/04/29 00:08:04;;;;;;;15.52;5.15;;;5.20;95.90;;;;;;5034035;28;20050;-26
2022/04/29 00:10:29;;;;;;;13.90;4.95;;;5.00;96.00;;;;;;5029330;28;20045;-25
2022/04/29 00:12:55;;;;;;;12.80;5.38;;;5.30;97.50;;;;;;5023390;28;20052;-26
2022/04/29 00:15:21;;;;;;;11.40;5.00;;;5.10;99.90;;;;;;5015075;28;20046;-25
2022/04/29 00:17:48;;;;;;;14.23;6.47;;;5.50;99.90;;;;;;5018693;28;20049;-25
2022/04/29 00:20:14;;;;;;;16.45;4.97;;;5.40;99.90;;;;;;5030897;28;20425;-25
2022/04/29 00:22:41;;;;;;;19.38;5.18;;;4.70;99.90;;;;;;5034102;28;20045;-25
2022/04/29 00:25:08;;;;;;;10.75;5.63;;;4.70;99.90;;;;;;5029861;28;20045;-26
2022/04/29 00:27:35;;;;;;;13.00;5.72;;;4.50;99.90;;;;;;5033694;28;20049;-25
2022/04/29 00:30:02;;;;;;;10.80;5.15;;;4.90;99.90;;;;;;5021968;28;20085;-25
2022/04/29 00:32:27;;;;;;;15.35;5.55;;;4.90;99.90;;;;;;5014927;28;20126;-25
2022/04/29 00:34:54;;;;;;;9.75;5.63;;;4.50;99.90;;;;;;5020215;28;20073;-26
2022/04/29 00:37:19;;;;;;;9.48;5.68;;;4.30;99.90;;;;;;5018087;28;20050;-25
2022/04/29 00:39:45;;;;;;;13.80;5.53;;;4.20;99.90;;;;;;5014403;28;20046;-25
2022/04/29 00:42:19;;;;;;;9.23;6.38;;;3.90;99.90;;;;;;5013889;28;20405;-26
2022/04/29 00:44:45;;;;;;;14.13;6.40;;;4.40;99.90;;;;;;5015464;28;20084;-25
2022/04/29 00:47:16;;;;;;;14.63;6.05;;;4.30;99.90;;;;;;5024292;28;20465;-25
2022/04/29 00:49:43;;;;;;;19.60;6.73;;;4.40;99.90;;;;;;5014801;28;20077;-25
2022/04/29 00:52:12;;;;;;;13.63;6.40;;;4.50;99.90;;;;;;5014404;28;20049;-26
2022/04/29 00:54:40;;;;;;;13.15;6.72;;;4.20;99.90;;;;;;5028558;28;20044;-25
2022/04/29 00:57:09;;;;;;;12.68;6.28;;;4.70;99.90;;;;;;5033562;28;20060;-25
2022/04/29 00:59:52;;;;;;;16.52;6.43;;;4.50;99.90;;;;;;5029712;28;20068;-25
2022/04/29 01:02:17;;;;;;;11.93;7.77;;;4.50;99.90;;;;;;5016047;28;20114;-25
2022/04/29 01:05:03;;;;;;;15.13;6.97;;;4.30;99.90;;;;;;5029705;28;20050;-25
2022/04/29 01:07:29;;;;;;;10.80;6.20;;;4.70;99.90;;;;;;5033523;28;20049;-25
2022/04/29 01:09:55;;;;;;;15.68;6.95;;;4.40;99.90;;;;;;5026266;28;20065;-26
2022/04/29 01:12:24;;;;;;;17.88;8.05;;;4.80;99.90;;;;;;5031795;28;20038;-25
2022/04/29 01:14:52;;;;;;;17.55;7.30;;;5.00;99.90;;;;;;5032800;28;20050;-25
2022/04/29 01:17:18;;;;;;;18.50;6.15;;;4.80;99.90;;;;;;5027564;28;20084;-25
2022/04/29 01:19:43;;;;;;;16.20;7.30;;;4.70;99.90;;;;;;5014323;28;20501;-26
2022/04/29 01:22:10;;;;;;;15.57;7.25;;;4.80;99.90;;;;;;5030765;28;20099;-26
2022/04/29 01:24:36;;;;;;;14.70;6.57;;;4.60;99.90;;;;;;5031385;28;20443;-25
2022/04/29 01:27:11;;;;;;;14.55;7.70;;;4.70;99.90;;;;;;5034089;28;20116;-25
2022/04/29 01:29:42;;;;;;;17.92;7.22;;;4.50;99.90;;;;;;5029157;28;20049;-25
2022/04/29 01:32:09;;;;;;;11.48;6.70;;;4.30;99.90;;;;;;5028404;28;20099;-25
2022/04/29 01:34:36;;;;;;;13.63;6.57;;;4.60;99.90;;;;;;5033248;28;20416;-26
2022/04/29 01:37:02;;;;;;;13.68;5.82;;;4.70;99.90;;;;;;5029665;28;20049;-26
2022/04/29 01:39:28;;;;;;;10.88;6.97;;;4.20;99.90;;;;;;5025387;28;20049;-25
2022/04/29 01:41:54;;;;;;;11.70;6.20;;;4.20;99.90;;;;;;5019378;28;20060;-25
2022/04/29 01:44:19;;;;;;;12.13;6.27;;;4.10;99.90;;;;;;5034824;28;20101;-25
2022/04/29 01:46:46;;;;;;;13.52;6.80;;;3.80;99.90;;;;;;5016010;28;20104;-25
2022/04/29 01:49:12;;;;;;;12.47;6.73;;;3.70;1.00;;;;;;5017241;28;20378;-26
2022/04/29 01:51:38;;;;;;;10.33;6.47;;;3.80;99.90;;;;;;5017122;28;20049;-25
2022/04/29 01:54:09;;;;;;;14.10;7.05;;;3.40;99.90;;;;;;5018679;28;20053;-25
2022/04/29 01:56:35;;;;;;;12.00;6.70;;;3.30;1.00;;;;;;5018406;28;20049;-25
2022/04/29 01:59:02;;;;;;;12.67;7.00;;;3.20;1.00;;;;;;5018176;28;20041;-25
2022/04/29 02:01:28;;;;;;;11.57;7.10;;;3.40;1.00;;;;;;5034705;28;20057;-25
2022/04/29 02:03:55;;;;;;;12.68;6.65;;;3.00;1.00;;;;;;5036784;28;20099;-25
2022/04/29 02:06:21;;;;;;;9.63;6.53;;;3.00;1.00;;;;;;5031742;28;20053;-25
2022/04/29 02:08:48;;;;;;;11.97;7.07;;;2.80;1.00;;;;;;5036658;28;20455;-25
2022/04/29 02:11:14;;;;;;;14.73;7.50;;;2.80;1.00;;;;;;5031256;28;20401;-25
2022/04/29 02:13:39;;;;;;;14.83;7.90;;;2.70;1.00;;;;;;5014232;28;20049;-25
2022/04/29 02:16:05;;;;;;;12.07;8.45;;;2.80;1.00;;;;;;5018551;28;20058;-24
2022/04/29 02:18:31;;;;;;;17.10;8.33;;;3.10;1.00;;;;;;5016220;28;20045;-25
2022/04/29 02:20:57;;;;;;;18.40;9.07;;;3.10;1.00;;;;;;5016953;28;20050;-25
2022/04/29 02:23:22;;;;;;;14.37;9.67;;;2.90;1.00;;;;;;5027019;28;20069;-25
2022/04/29 02:25:48;;;;;;;13.70;8.97;;;2.90;1.00;;;;;;5030461;28;20052;-25
2022/04/29 02:28:14;;;;;;;14.87;8.93;;;3.20;1.00;;;;;;5028250;28;20061;-25
2022/04/29 02:30:40;;;;;;;17.57;9.87;;;2.90;1.00;;;;;;5018366;28;20042;-25
2022/04/29 02:33:07;;;;;;;18.80;9.23;;;3.10;1.00;;;;;;5016449;28;20053;-25
2022/04/29 02:35:33;;;;;;;13.83;8.53;;;3.30;1.00;;;;;;5021503;28;20050;-25
2022/04/29 02:37:59;;;;;;;14.90;9.43;;;3.50;1.00;;;;;;5013802;28;20044;-25
2022/04/29 02:40:25;;;;;;;16.47;8.60;;;2.80;1.00;;;;;;5024799;28;20131;-25
2022/04/29 02:42:50;;;;;;;15.40;9.50;;;2.80;1.00;;;;;;5035078;28;20053;-25
2022/04/29 02:45:17;;;;;;;16.87;9.57;;;3.00;1.00;;;;;;5027217;28;20041;-25
2022/04/29 02:47:43;;;;;;;15.47;9.60;;;2.90;39.10;;;;;;5034770;28;20179;-25
2022/04/29 02:50:09;;;;;;;14.13;10.07;;;2.80;28.50;;;;;;5031484;28;20120;-24
2022/04/29 02:52:35;;;;;;;23.10;9.57;;;2.80;99.90;;;;;;5035300;28;20052;-25
2022/04/29 02:55:01;;;;;;;16.73;9.27;;;3.00;99.90;;;;;;5034620;28;20045;-26
2022/04/29 02:57:26;;;;;;;16.50;10.43;;;2.80;99.90;;;;;;5034835;28;20146;-28
2022/04/29 02:59:52;;;;;;;14.13;9.17;;;2.60;99.90;;;;;;5031576;28;20404;-27
2022/04/29 03:02:18;;;;;;;17.63;9.03;;;2.90;99.90;;;;;;5030379;28;20119;-26
2022/04/29 03:04:43;;;;;;;17.83;9.57;;;2.80;99.90;;;;;;5017923;28;20045;-26
2022/04/29 03:07:09;;;;;;;18.73;10.23;;;2.60;99.90;;;;;;5035581;28;20084;-27
2022/04/29 03:09:35;;;;;;;15.80;9.13;;;2.40;99.90;;;;;;5035531;28;20055;-26
2022/04/29 03:12:01;;;;;;;19.80;9.23;;;2.40;99.90;;;;;;5035327;28;20048;-27
2022/04/29 03:14:26;;;;;;;17.97;9.17;;;2.30;84.80;;;;;;5028857;28;20046;-28
2022/04/29 03:16:52;;;;;;;18.03;9.50;;;2.20;60.40;;;;;;5035385;28;20053;-27
2022/04/29 03:19:18;;;;;;;16.57;9.80;;;2.20;60.30;;;;;;5030964;28;20050;-27
2022/04/29 03:21:43;;;;;;;25.53;10.93;;;2.90;78.70;;;;;;5032916;28;20045;-26
2022/04/29 03:24:09;;;;;;;16.87;10.07;;;2.40;99.90;;;;;;5031905;28;20045;-27
2022/04/29 03:26:35;;;;;;;20.20;10.60;;;3.10;99.90;;;;;;5014847;28;20413;-26
2022/04/29 03:29:02;;;;;;;21.23;11.27;;;3.30;99.90;;;;;;5014972;28;20176;-27
2022/04/29 03:31:28;;;;;;;22.83;11.67;;;2.40;99.90;;;;;;5014202;28;20477;-27
2022/04/29 03:33:53;;;;;;;15.57;10.60;;;2.50;99.90;;;;;;5014466;28;20069;-27
2022/04/29 03:36:19;;;;;;;19.60;11.03;;;2.50;99.90;;;;;;5022923;28;20131;-26
2022/04/29 03:38:45;;;;;;;21.23;12.20;;;2.80;99.90;;;;;;5035761;28;20497;-26
2022/04/29 03:41:12;;;;;;;21.93;10.67;;;3.00;99.90;;;;;;5015642;28;20058;-27
2022/04/29 03:43:38;;;;;;;17.17;10.10;;;2.90;99.90;;;;;;5017002;28;20567;-26
2022/04/29 03:46:05;;;;;;;19.20;10.13;;;3.70;99.90;;;;;;5034892;28;20061;-26
2022/04/29 03:51:16;;;;;;;23.17;13.07;;;3.10;99.90;;;;;;5026619;28;20056;-27
2022/04/29 03:53:42;;;;;;;19.00;11.97;;;3.30;99.90;;;;;;5024704;28;20046;-27
2022/04/29 03:56:07;;;;;;;18.30;11.73;;;3.20;99.90;;;;;;5015487;28;20473;-27
2022/04/29 03:58:33;;;;;;;22.00;12.88;;;3.90;1.00;;;;;;5015152;28;20401;-27
2022/04/29 04:00:59;;;;;;;25.20;12.75;;;4.00;1.00;;;;;;5014798;28;20058;-27
2022/04/29 04:03:24;;;;;;;20.25;12.30;;;3.70;1.00;;;;;;5014252;28;20072;-29
2022/04/29 04:08:35;;;;;;;21.27;11.70;;;3.70;1.00;;;;;;5030993;28;20057;-27
2022/04/29 04:11:01;;;;;;;17.30;11.02;;;3.80;1.00;;;;;;5025613;28;21741;-27
2022/04/29 04:13:27;;;;;;;15.30;10.30;;;4.20;1.00;;;;;;5028954;28;20050;-26
2022/04/29 04:15:52;;;;;;;22.90;12.07;;;4.20;1.00;;;;;;5034174;28;20046;-27
2022/04/29 04:18:18;;;;;;;21.55;11.90;;;4.10;1.00;;;;;;5034250;28;20381;-27
2022/04/29 04:20:44;;;;;;;19.63;11.05;;;4.00;1.00;;;;;;5009604;28;20092;-27
2022/04/29 04:23:10;;;;;;;16.05;10.68;;;4.70;1.00;;;;;;5014412;28;20390;-27
2022/04/29 04:25:36;;;;;;;19.20;11.35;;;5.20;1.00;;;;;;5015146;28;20045;-28
2022/04/29 04:28:01;;;;;;;19.10;11.40;;;4.60;1.00;;;;;;5022658;28;20107;-27
2022/04/29 04:30:27;;;;;;;17.42;11.30;;;4.70;1.00;;;;;;5034282;28;20053;-27
2022/04/29 04:32:53;;;;;;;12.02;8.45;;;4.90;1.00;;;;;;5034015;28;20045;-27
2022/04/29 04:35:20;;;;;;;13.32;8.38;;;4.80;1.00;;;;;;5030252;28;20040;-27
2022/04/29 04:37:45;;;;;;;16.67;8.90;;;4.60;1.00;;;;;;5034498;28;20092;-27
2022/04/29 04:40:11;;;;;;;12.50;8.13;;;5.30;1.00;;;;;;5027820;28;20076;-27
2022/04/29 04:42:44;;;;;;;17.33;9.48;;;4.60;1.00;;;;;;5032400;28;20402;-27
2022/04/29 04:45:10;;;;;;;17.58;8.90;;;4.90;1.00;;;;;;5021079;28;20053;-27
2022/04/29 04:47:36;;;;;;;14.13;8.77;;;4.80;1.00;;;;;;5014570;28;20053;-27
2022/04/29 04:50:02;;;;;;;19.67;8.88;;;5.30;1.00;;;;;;5019498;28;20045;-27
2022/04/29 04:52:28;;;;;;;14.32;8.38;;;5.30;1.00;;;;;;5033862;28;20041;-27
2022/04/29 04:54:53;;;;;;;13.77;7.88;;;5.80;1.00;;;;;;5032194;28;20579;-27
2022/04/29 04:57:19;;;;;;;10.00;7.20;;;6.00;1.00;;;;;;5012467;28;20078;-27
2022/04/29 04:59:45;;;;;;;10.15;6.72;;;6.00;1.00;;;;;;5012667;28;20050;-27
2022/04/29 05:02:10;;;;;;;8.85;5.55;;;6.10;99.90;;;;;;5014147;28;20129;-28
2022/04/29 05:04:36;;;;;;;10.88;6.60;;;6.40;99.90;;;;;;5029435;28;20041;-28
2022/04/29 05:07:03;;;;;;;7.40;4.80;;;6.60;99.90;;;;;;5032286;28;20045;-27
2022/04/29 05:09:28;;;;;;;8.82;4.38;;;6.60;99.90;;;;;;5028888;28;20480;-27
2022/04/29 05:11:54;;;;;;;8.32;4.15;;;6.90;98.20;;;;;;5014748;28;20137;-27
2022/04/29 05:14:20;;;;;;;4.57;3.28;;;7.00;10.70;;;;;;5032206;28;20107;-27
2022/04/29 05:16:46;;;;;;;7.97;3.30;;;6.90;1.00;;;;;;5032163;28;20046;-27
2022/04/29 05:19:12;;;;;;;4.65;3.40;;;7.20;99.90;;;;;;5020717;28;20046;-28
2022/04/29 05:21:37;;;;;;;4.70;3.08;;;7.10;99.90;;;;;;5031913;28;20044;-27
2022/04/29 05:24:03;;;;;;;5.65;2.85;;;7.50;99.90;;;;;;5031518;28;20053;-27
2022/04/29 05:26:29;;;;;;;6.88;3.15;;;7.20;33.80;;;;;;5013138;28;20050;-27
2022/04/29 05:28:54;;;;;;;6.03;3.40;;;7.60;65.00;;;;;;5013601;28;20053;-27
2022/04/29 05:31:20;;;;;;;4.38;2.80;;;7.60;27.90;;;;;;5018025;28;20050;-27
2022/04/29 05:33:46;;;;;;;6.95;3.58;;;7.40;27.10;;;;;;5013482;28;20050;-27
2022/04/29 05:36:13;;;;;;;8.43;3.60;;;7.50;19.30;;;;;;5014039;28;20129;-27
2022/04/29 05:44:08;;;;;;;6.45;2.83;;;7.80;1.00;;;;;;5032609;28;20097;-27
2022/04/29 05:46:35;;;;;;;6.05;2.88;;;7.70;1.00;;;;;;5033031;28;20050;-27
2022/04/29 05:49:01;;;;;;;7.78;2.85;;;7.70;1.00;;;;;;5030753;28;20120;-27
2022/04/29 05:51:27;;;;;;;5.82;2.30;;;8.20;1.00;;;;;;4995867;28;20386;-27
2022/04/29 05:53:53;;;;;;;6.95;3.03;;;7.90;1.00;;;;;;5013840;28;20045;-27
2022/04/29 05:56:19;;;;;;;6.35;2.60;;;7.90;1.00;;;;;;5018156;28;20041;-28
2022/04/29 05:58:45;;;;;;;4.60;2.47;;;8.00;1.00;;;;;;5026092;28;20049;-27
2022/04/29 06:01:11;;;;;;;4.65;2.08;;;8.00;1.00;;;;;;5000127;28;20061;-27
2022/04/29 06:03:37;;;;;;;5.28;1.90;;;8.20;1.00;;;;;;5013384;28;20112;-27
2022/04/29 06:06:03;;;;;;;6.50;2.58;;;8.20;1.00;;;;;;5013365;28;20046;-28
2022/04/29 06:08:29;;;;;;;5.05;2.28;;;8.10;1.00;;;;;;5015332;28;20519;-28
2022/04/29 06:10:55;;;;;;;7.15;2.08;;;8.10;1.00;;;;;;5029339;28;20053;-28
2022/04/29 06:13:21;;;;;;;9.70;2.78;;;8.20;1.00;;;;;;5031941;28;20048;-28
2022/04/29 06:15:46;;;;;;;5.43;2.65;;;8.20;1.00;;;;;;5016688;28;20048;-27
2022/04/29 06:18:12;;;;;;;5.85;2.22;;;8.40;1.00;;;;;;5014060;28;20057;-27
2022/04/29 06:20:38;;;;;;;6.32;2.38;;;8.60;1.00;;;;;;5012683;28;20064;-27
2022/04/29 06:23:03;;;;;;;9.07;2.10;;;8.60;99.90;;;;;;5014012;28;20092;-27
2022/04/29 06:25:29;;;;;;;5.38;2.00;;;8.50;99.90;;;;;;5014977;28;20501;-27
2022/04/29 06:27:55;;;;;;;5.88;1.80;;;8.50;99.90;;;;;;5034412;28;20041;-27
2022/04/29 06:30:21;;;;;;;10.52;2.08;;;8.60;99.90;;;;;;5032919;28;20098;-27
2022/04/29 06:32:47;;;;;;;4.57;1.70;;;8.70;99.90;;;;;;5036400;28;20132;-27
2022/04/29 06:35:15;;;;;;;5.45;1.80;;;8.70;99.90;;;;;;5036902;28;20488;-27
2022/04/29 06:37:40;;;;;;;8.05;1.85;;;8.80;99.90;;;;;;5019580;28;20050;-27
2022/04/29 06:40:08;;;;;;;5.05;1.40;;;9.00;99.90;;;;;;5021246;28;20046;-27
2022/04/29 06:42:46;;;;;;;4.50;1.30;;;9.00;99.90;;;;;;5015455;28;20053;-27
2022/04/29 06:45:13;;;;;;;4.50;1.40;;;9.10;99.90;;;;;;5032477;28;20049;-27
2022/04/29 06:47:39;;;;;;;5.70;1.50;;;9.30;99.90;;;;;;5035095;28;20128;-27
2022/04/29 06:50:06;;;;;;;4.60;1.50;;;10.00;99.90;;;;;;5026001;28;20053;-28
2022/04/29 06:52:33;;;;;;;7.85;1.65;;;9.70;99.90;;;;;;5016467;28;20408;-27
2022/04/29 06:54:58;;;;;;;7.32;1.38;;;10.00;99.90;;;;;;5025558;28;20132;-28
2022/04/29 06:57:24;;;;;;;5.78;1.23;;;10.00;99.90;;;;;;5035965;28;20149;-28
2022/04/29 06:59:50;;;;;;;5.90;1.70;;;10.20;99.90;;;;;;5031163;28;20107;-27
2022/04/29 07:02:19;;;;;;;17.50;3.42;;;10.00;99.90;;;;;;5036127;28;20125;-27
2022/04/29 07:04:45;;;;;;;9.93;1.95;;;10.20;99.90;;;;;;5029935;28;20120;-27
2022/04/29 07:07:11;;;;;;;7.25;1.52;;;10.10;99.90;;;;;;5016018;28;20052;-28
2022/04/29 07:09:39;;;;;;;3.83;1.25;;;10.40;99.90;;;;;;5020563;28;20045;-27
2022/04/29 07:12:06;;;;;;;4.88;1.38;;;10.30;96.50;;;;;;5035712;28;20136;-27
2022/04/29 07:14:32;;;;;;;7.40;1.60;;;10.10;82.30;;;;;;5035540;28;20084;-28
2022/04/29 07:16:57;;;;;;;4.15;1.30;;;10.00;80.40;;;;;;5026165;28;20096;-28
2022/04/29 07:19:23;;;;;;;5.55;1.63;;;9.90;51.60;;;;;;5015633;28;20045;-27
2022/04/29 07:21:49;;;;;;;8.05;1.92;;;9.80;50.50;;;;;;5014732;28;20512;-27
2022/04/29 07:24:14;;;;;;;3.60;1.48;;;9.70;21.70;;;;;;5016758;28;20095;-27
2022/04/29 07:26:40;;;;;;;3.90;1.40;;;9.80;31.90;;;;;;5014785;28;20053;-27
2022/04/29 07:29:07;;;;;;;5.18;1.80;;;9.40;21.40;;;;;;5015073;28;20132;-28
2022/04/29 07:31:33;;;;;;;4.20;1.48;;;9.30;24.80;;;;;;5016823;28;20077;-27
2022/04/29 07:33:59;;;;;;;4.95;1.42;;;9.30;33.70;;;;;;5018515;28;20061;-27
2022/04/29 07:41:54;;;;;;;6.30;1.65;;;9.30;1.00;;;;;;5022204;28;20041;-27
2022/04/29 07:44:20;;;;;;;7.00;1.50;;;9.40;1.00;;;;;;5029922;28;20137;-27
2022/04/29 07:46:48;;;;;;;5.30;1.33;;;9.50;7.10;;;;;;5033331;28;20046;-27
2022/04/29 07:49:14;;;;;;;5.95;1.45;;;9.60;1.00;;;;;;5031149;28;20481;-27
2022/04/29 07:51:43;;;;;;;4.32;1.50;;;9.70;1.00;;;;;;5025929;28;20038;-27
2022/04/29 07:54:09;;;;;;;10.93;1.52;;;9.70;1.00;;;;;;5030730;28;20052;-27
2022/04/29 07:56:35;;;;;;;12.05;2.80;;;9.80;1.00;;;;;;5034464;28;20567;-28
2022/04/29 07:59:02;;;;;;;10.48;2.80;;;9.90;1.00;;;;;;5033877;28;20067;-27
2022/04/29 08:01:28;;;;;;;3.33;1.80;;;9.70;1.00;;;;;;5020984;28;20061;-28
2022/04/29 08:03:54;;;;;;;5.50;2.25;;;9.70;1.00;;;;;;5014951;28;20048;-29
2022/04/29 08:06:21;;;;;;;3.72;1.80;;;9.70;3.00;;;;;;5013687;28;20383;-27
2022/04/29 08:08:47;;;;;;;14.95;2.78;;;9.70;1.00;;;;;;5014190;28;20049;-28
2022/04/29 08:11:14;;;;;;;7.45;2.90;;;10.00;1.00;;;;;;5016887;28;20049;-27
2022/04/29 08:13:44;;;;;;;8.70;2.00;;;9.70;1.00;;;;;;5015281;28;20046;-27
2022/04/29 08:16:14;;;;;;;7.40;2.08;;;9.80;1.00;;;;;;5024746;28;20044;-29
2022/04/29 08:18:40;;;;;;;4.50;2.10;;;9.80;1.00;;;;;;5035014;28;20131;-27
2022/04/29 08:21:06;;;;;;;5.50;1.77;;;9.90;1.00;;;;;;5033160;28;20608;-27
2022/04/29 08:23:33;;;;;;;3.75;1.60;;;10.00;1.00;;;;;;5033045;28;20045;-27
2022/04/29 08:25:58;;;;;;;6.05;1.70;;;10.30;1.00;;;;;;5015799;28;20061;-27
2022/04/29 08:28:26;;;;;;;8.90;2.22;;;10.40;1.00;;;;;;5013330;28;20050;-27
2022/04/29 08:30:52;;;;;;;10.95;2.35;;;10.80;1.00;;;;;;5026412;28;20404;-29
2022/04/29 08:33:18;;;;;;;5.45;1.25;;;10.90;1.00;;;;;;5025848;28;20045;-27
2022/04/29 08:35:44;;;;;;;9.05;1.75;;;10.90;1.00;;;;;;5034115;28;20049;-27
2022/04/29 08:38:11;;;;;;;9.73;3.03;;;10.90;1.00;;;;;;5034055;28;20049;-27
2022/04/29 08:40:44;;;;;;;7.68;2.83;;;11.10;1.00;;;;;;5016119;28;20042;-27
2022/04/29 08:43:14;;;;;;;4.53;1.30;;;11.10;1.00;;;;;;5014252;28;20516;-27
2022/04/29 08:45:42;;;;;;;2.55;1.27;;;11.00;1.00;;;;;;5025285;28;20048;-27
2022/04/29 08:48:09;;;;;;;5.55;1.80;;;10.90;99.90;;;;;;5033936;28;20063;-28
2022/04/29 08:50:35;;;;;;;7.60;1.50;;;10.90;99.90;;;;;;5033351;28;20045;-27
2022/04/29 08:53:01;;;;;;;4.85;1.55;;;10.90;99.90;;;;;;5032965;28;20107;-28
2022/04/29 09:01:05;;;;;;;6.72;2.05;;;10.80;99.90;;;;;;5023046;28;20093;-27
2022/04/29 09:03:31;;;;;;;4.63;1.45;;;10.80;99.90;;;;;;5021980;28;20516;-28
2022/04/29 09:05:57;;;;;;;2.80;0.77;;;11.00;99.90;;;;;;5032733;28;20045;-28
2022/04/29 09:08:24;;;;;;;3.25;0.80;;;10.90;99.90;;;;;;5032566;28;20055;-28
2022/04/29 09:10:56;;;;;;;10.43;2.30;;;10.70;99.90;;;;;;5031009;28;20099;-29
2022/04/29 09:13:27;;;;;;;30.20;3.10;;;10.70;99.90;;;;;;5032620;28;20048;-28
2022/04/29 09:15:59;;;;;;;5.13;1.50;;;10.80;99.90;;;;;;5029931;28;20041;-28
2022/04/29 09:18:39;;;;;;;6.20;1.65;;;11.00;99.90;;;;;;5017153;28;20049;-28
2022/04/29 09:21:07;;;;;;;6.22;1.70;;;11.00;99.90;;;;;;5034115;28;20112;-28
2022/04/29 09:23:36;;;;;;;6.30;1.77;;;10.80;99.90;;;;;;5030624;28;20371;-28
2022/04/29 09:26:05;;;;;;;6.68;2.53;;;10.70;99.90;;;;;;5013315;28;20408;-28
2022/04/29 09:28:33;;;;;;;5.28;1.27;;;10.60;99.90;;;;;;5014284;28;20473;-27
2022/04/29 09:30:59;;;;;;;5.07;2.10;;;10.40;99.90;;;;;;5015079;28;20045;-28
2022/04/29 09:33:26;;;;;;;4.35;1.48;;;10.30;99.90;;;;;;5025303;28;20053;-27
2022/04/29 09:35:54;;;;;;;7.05;2.00;;;10.20;99.90;;;;;;5033336;28;20053;-28
2022/04/29 09:41:05;;;;;;;4.70;1.80;;;10.30;99.90;;;;;;5015926;28;20046;-28
2022/04/29 09:43:36;;;;;;;10.82;3.58;;;10.20;99.90;;;;;;5023876;28;20046;-28
2022/04/29 09:46:11;;;;;;;11.50;2.47;;;10.10;99.90;;;;;;5033911;28;20052;-28
2022/04/29 09:49:02;;;;;;;12.10;2.03;;;10.10;99.90;;;;;;5030690;28;20060;-28
2022/04/29 09:51:41;;;;;;;15.95;3.50;;;10.20;99.90;;;;;;5012048;28;20046;-28
2022/04/29 09:54:37;;;;;;;4.75;1.70;;;10.20;99.90;;;;;;5015274;28;20038;-29
2022/04/29 09:57:13;;;;;;;8.77;2.00;;;10.20;99.90;;;;;;5011503;28;20108;-28
2022/04/29 09:59:41;;;;;;;6.97;2.50;;;10.20;99.90;;;;;;5016488;28;20041;-29
2022/04/29 10:02:08;;;;;;;4.88;1.95;;;10.20;99.90;;;;;;5034880;28;20064;-28
2022/04/29 10:04:36;;;;;;;5.13;2.22;;;10.20;99.90;;;;;;5036009;28;20128;-28
2022/04/29 10:07:07;;;;;;;6.35;2.15;;;10.20;99.90;;;;;;5019447;28;20136;-28
2022/04/29 10:09:40;;;;;;;3.88;2.42;;;10.40;99.90;;;;;;5032642;28;20103;-28
2022/04/29 10:12:16;;;;;;;;;;;10.30;99.90;;;;;;5017093;28;20452;-28
2022/04/29 10:14:43;;;;;;;5.50;2.70;;;10.10;99.90;;;;;;5016320;28;19921;-28
2022/04/29 10:22:52;;;;;;;4.22;1.77;;;10.10;99.90;;;;;;5017157;28;20061;-27
2022/04/29 10:25:24;;;;;;;8.15;2.13;;;10.10;99.90;;;;;;5018792;28;20049;-28
2022/04/29 10:27:51;;;;;;;3.85;1.63;;;10.00;1.00;;;;;;5016987;28;20048;-28
2022/04/29 10:30:32;;;;;;;7.50;2.20;;;10.00;99.90;;;;;;5016936;28;20041;-28
2022/04/29 10:33:07;;;;;;;6.53;2.20;;;10.00;99.90;;;;;;5022186;28;20045;-29
2022/04/29 10:35:39;;;;;;;5.97;2.00;;;10.00;1.00;;;;;;5035269;28;20428;-28
2022/04/29 10:38:21;;;;;;;5.53;1.92;;;9.90;99.90;;;;;;5029807;28;20045;-29
2022/04/29 10:41:07;;;;;;;9.77;5.03;;;9.80;1.00;;;;;;5016499;28;20503;-28
2022/04/29 10:44:04;;;;;;;5.75;2.38;;;10.00;1.00;;;;;;5015315;28;20503;-28
2022/04/29 10:46:38;;;;;;;6.13;1.73;;;10.30;99.90;;;;;;5025955;28;20128;-28
2022/04/29 10:49:23;;;;;;;6.43;1.60;;;10.40;99.90;;;;;;5016400;28;20516;-28
2022/04/29 10:51:59;;;;;;;4.72;1.65;;;10.60;99.90;;;;;;5014402;28;20072;-28
2022/04/29 10:54:45;;;;;;;5.35;2.10;;;10.90;99.90;;;;;;5014526;28;20135;-28
2022/04/29 10:57:12;;;;;;;5.95;1.50;;;11.10;99.90;;;;;;5026997;28;20059;-28
2022/04/29 11:00:10;;;;;;;8.20;1.80;;;11.20;99.90;;;;;;5034928;28;20046;-28
2022/04/29 11:02:35;;;;;;;4.97;2.20;;;11.40;99.90;;;;;;5032253;28;20045;-28
2022/04/29 11:05:03;;;;;;;5.15;1.90;;;11.50;99.90;;;;;;5035365;28;20107;-28
2022/04/29 11:07:34;;;;;;;3.97;1.42;;;11.80;99.90;;;;;;5029556;28;20456;-28
2022/04/29 11:10:00;;;;;;;3.40;1.55;;;11.90;99.90;;;;;;5015932;28;20053;-28
2022/04/29 11:12:30;;;;;;;10.18;2.97;;;11.90;99.90;;;;;;5016289;28;20045;-28
2022/04/29 11:15:21;;;;;;;6.90;1.70;;;11.90;99.90;;;;;;5021921;28;20045;-27
2022/04/29 11:17:47;;;;;;;5.00;1.85;;;11.70;99.90;;;;;;5021516;28;20050;-27
2022/04/29 11:20:25;;;;;;;15.20;2.30;;;11.60;99.90;;;;;;5014574;28;20120;-29
2022/04/29 11:26:00;;;;;;;8.45;2.08;;;11.60;99.90;;;;;;5015712;28;20061;-27
2022/04/29 11:28:27;;;;;;;10.35;2.60;;;11.80;99.90;;;;;;5016436;28;20054;-28
2022/04/29 11:31:01;;;;;;;16.45;2.75;;;11.90;99.90;;;;;;5015540;28;20042;-27
2022/04/29 11:33:27;;;;;;;6.68;1.92;;;11.80;99.90;;;;;;5016020;28;20045;-27
2022/04/29 11:36:10;;;;;;;7.85;1.98;;;11.80;99.90;;;;;;5014287;28;20049;-27
2022/04/29 11:38:47;;;;;;;4.32;1.92;;;11.70;99.90;;;;;;5015538;28;20084;-27
2022/04/29 11:41:21;;;;;;;8.82;2.30;;;11.40;99.90;;;;;;5015444;28;20481;-28
2022/04/29 11:43:49;;;;;;;5.85;1.48;;;11.30;99.90;;;;;;5015634;28;20046;-27
2022/04/29 11:46:15;;;;;;;3.38;1.25;;;11.30;99.90;;;;;;5015508;28;20500;-27
2022/04/29 11:48:55;;;;;;;4.45;1.50;;;11.50;99.90;;;;;;5014317;28;20045;-27
2022/04/29 11:51:22;;;;;;;5.00;1.55;;;11.40;99.90;;;;;;5015019;28;20100;-27
2022/04/29 11:53:58;;;;;;;8.55;1.50;;;11.60;99.90;;;;;;5015418;28;20068;-28
2022/04/29 11:56:37;;;;;;;5.65;1.60;;;11.90;99.90;;;;;;5015099;28;20046;-27
2022/04/29 11:59:07;;;;;;;4.47;1.67;;;12.20;99.90;;;;;;5015103;28;20549;-27
2022/04/29 12:01:34;;;;;;;6.97;1.80;;;12.10;99.90;;;;;;5013508;28;20181;-27
2022/04/29 12:03:59;;;;;;;7.22;1.75;;;11.80;99.90;;;;;;5014940;28;20064;-27
2022/04/29 12:06:25;;;;;;;2.70;1.55;;;11.60;99.90;;;;;;5013680;28;20053;-27
2022/04/29 12:08:51;;;;;;;6.65;1.92;;;11.30;99.90;;;;;;5014672;28;20053;-28
2022/04/29 12:11:24;;;;;;;6.70;2.00;;;11.10;99.90;;;;;;5015285;28;20050;-27
2022/04/29 12:13:49;;;;;;;4.85;1.95;;;11.00;99.90;;;;;;5014716;28;20050;-27
2022/04/29 12:16:16;;;;;;;4.32;1.67;;;11.20;99.90;;;;;;5014002;28;20056;-28
2022/04/29 12:18:43;;;;;;;3.70;2.20;;;11.10;99.90;;;;;;5014673;28;20045;-27
2022/04/29 12:21:10;;;;;;;2.90;1.55;;;11.10;99.90;;;;;;5014677;28;20049;-27
2022/04/29 12:23:36;;;;;;;3.80;1.20;;;11.10;99.90;;;;;;5014632;28;20056;-27
2022/04/29 12:26:04;;;;;;;3.67;1.75;;;11.10;99.90;;;;;;5014523;28;20038;-29
2022/04/29 12:28:31;;;;;;;3.88;1.67;;;11.40;99.90;;;;;;5014784;28;20046;-27
2022/04/29 12:36:47;;;;;;;2.38;1.40;;;11.40;99.90;;;;;;5014970;28;20065;-27
2022/04/29 12:39:15;;;;;;;6.00;1.83;;;11.30;99.90;;;;;;5014864;28;20076;-27
2022/04/29 12:41:42;;;;;;;3.80;1.73;;;11.30;99.90;;;;;;5014282;28;20121;-28
2022/04/29 12:45:03;;;;;;;5.65;2.00;;;11.50;99.90;;;;;;5014689;28;20056;-28
2022/04/29 12:47:19;;;;;;;4.63;1.40;;;11.60;99.90;;;;;;5013760;28;20061;-27
2022/04/29 12:49:45;;;;;;;4.57;1.77;;;11.40;99.90;;;;;;5014112;28;20567;-27
2022/04/29 12:52:12;;;;;;;4.22;1.38;;;11.20;99.90;;;;;;5014619;28;20082;-27
2022/04/29 12:54:38;;;;;;;4.32;1.33;;;11.40;99.90;;;;;;5014599;28;20046;-27
2022/04/29 12:57:05;;;;;;;4.18;1.50;;;11.70;99.90;;;;;;5014670;28;20049;-27
2022/04/29 12:59:36;;;;;;;2.75;1.30;;;11.70;99.90;;;;;;4997374;28;20104;-28
2022/04/29 13:02:05;;;;;;;5.70;1.40;;;11.80;99.90;;;;;;5014781;28;20058;-27
2022/04/29 13:04:32;;;;;;;9.07;1.73;;;11.90;99.90;;;;;;4997415;28;20057;-28
2022/04/29 13:06:59;;;;;;;3.10;1.33;;;11.80;99.90;;;;;;5013947;28;20053;-27
2022/04/29 13:09:25;;;;;;;4.45;1.95;;;12.00;99.90;;;;;;5013899;28;20160;-27
2022/04/29 13:11:52;;;;;;;5.70;1.67;;;12.20;99.90;;;;;;4996169;28;20042;-27
2022/04/29 13:14:17;;;;;;;5.20;1.27;;;12.30;99.90;;;;;;5014124;28;20096;-27
2022/04/29 13:16:44;;;;;;;3.00;1.38;;;12.50;99.90;;;;;;5013837;28;20432;-28
2022/04/29 13:19:11;;;;;;;5.45;1.65;;;12.70;99.90;;;;;;5013594;28;20058;-28
2022/04/29 13:21:37;;;;;;;3.10;1.00;;;12.80;99.90;;;;;;5012767;28;20050;-28
2022/04/29 13:24:04;;;;;;;4.03;1.63;;;13.20;99.90;;;;;;5012827;28;20072;-28
2022/04/29 13:26:31;;;;;;;4.15;1.92;;;13.40;99.90;;;;;;5013023;28;20045;-28
2022/04/29 13:28:58;;;;;;;5.25;1.70;;;;;;;;;;5013778;28;20050;-27
2022/04/29 13:31:27;;;;;;;3.70;1.70;;;;;;;;;;5013631;28;20157;-27
2022/04/29 13:33:56;;;;;;;4.97;2.42;;;;;;;;;;5013959;28;20045;-28
2022/04/29 13:36:23;;;;;;;5.68;2.40;;;;;;;;;;5015503;28;20493;-28